This is the latest recevied weather packets stored in our database for station/object LZ3DJ-10. If no packets are shown the sender has not sent any weather packets the latest 10 day(s).
| Time | Temp. | Humidity | Pressure | Rain* | Wind** | Luminosity | Snow |
|---|---|---|---|---|---|---|---|
| 1787443206 | 23.33° C | 60% | 1011.3 hPa | 0 mm | 0 m/s | - | - |
| 1787442306 | 22.78° C | 61% | 1011.2 hPa | 0 mm | 0 m/s | - | - |
| 1787441405 | 23.89° C | 58% | 1011 hPa | 0 mm | 0 m/s | - | - |
| 1787440506 | 23.33° C | 59% | 1011 hPa | 0 mm | 0 m/s | - | - |
| 1787439605 | 23.89° C | 58% | 1011 hPa | 0 mm | 0 m/s | - | - |
| 1787438706 | 24.44° C | 56% | 1010.9 hPa | 0 mm | 0 m/s | - | - |
| 1787437806 | 24.44° C | 55% | 1010.9 hPa | 0 mm | 0 m/s | - | - |
| 1787436906 | 23.89° C | 57% | 1011 hPa | 0 mm | 0 m/s | - | - |
| 1787436006 | 24.44° C | 55% | 1010.9 hPa | 0 mm | 0 m/s | - | - |
| 1787435106 | 24.44° C | 56% | 1010.8 hPa | 0 mm | 0 m/s | - | - |
| 1787434205 | 24.44° C | 55% | 1010.6 hPa | 0 mm | 0 m/s | - | - |
| 1787433305 | 25° C | 52% | 1010.3 hPa | 0 mm | 0 m/s | - | - |
| 1787432406 | 25° C | 55% | 1010.2 hPa | 0 mm | 0 m/s | - | - |
| 1787431506 | 25° C | 54% | 1010.2 hPa | 0 mm | 0 m/s | - | - |
| 1787430606 | 26.11° C | 52% | 1010 hPa | 0 mm | 0 m/s | - | - |
| 1787429706 | 26.11° C | 51% | 1009.8 hPa | 0 mm | 0 m/s | - | - |
| 1787428806 | 26.67° C | 48% | 1009.6 hPa | 0 mm | 0 m/s | - | - |
| 1787427905 | 26.67° C | 49% | 1009.5 hPa | 0 mm | 0 m/s | - | - |
| 1787427006 | 27.22° C | 48% | 1009.3 hPa | 0 mm | 0 m/s | - | - |
| 1787426105 | 27.78° C | 47% | 1009.2 hPa | 0 mm | 0 m/s | - | - |
| 1787425205 | 27.78° C | 46% | 1009.1 hPa | 0 mm | 0 m/s | - | - |
| 1787424306 | 28.33° C | 48% | 1008.9 hPa | 0 mm | 0 m/s | - | - |
| 1787423405 | 29.44° C | 44% | 1008.6 hPa | 0 mm | 0 m/s | - | - |
| 1787422505 | 29.44° C | 43% | 1008.3 hPa | 0 mm | 0 m/s | - | - |
| 1787421606 | 30° C | 41% | 1007.8 hPa | 0 mm | 0 m/s | - | - |
* Rain latest hour (hover to see other rain measurements)
** Current wind speed in m/s (hover to see current wind gust speed)